Etusivu
METAR-TAF:

METAR-TAF

Lentoasemat :

Rouyn-Noranda, Quebec, Kanada

Leveyspiiri: 48-12N, Pituuspiiri: 078-50W, korkeus merenpinnasta: 301 m

Tämänhetkinen sää

Tämä raportti tehtiin 55 minuuttia sitten, kello 09.00 UTC
Tuuli 11 kn luoteesta puuskistuen 23 kn:hen
Lämpötila -13°C
Kosteus 78%
Ilmanpaine 996 hPa
Näkyvyys: 19.3 km
Pilvistä 2000 ft:n korkeudessa
heikkoa lumisadetta

METAR: CYUY 150900Z 32011G23KT 12SM -SN OVC020 M13/M16 A2941 RMK SC8 SLP983

Aika: 04:55 (09:55 UTC)

Sääennuste

Tämä raportti tehtiin 1 tunti ja 42 minuuttia sitten, kello 08.13 UTC
Ennuste voimassa 15. päivästä klo 08 UTC - 15. päivään klo 18 UTC
Tuuli 12 kn luoteesta puuskistuen 22 kn:hen
Näkyvyys: 10 km
Pilvistä 3000 ft:n korkeudessa
heikkoa lumisadetta
Ajoittain
15. päivästä klo 08 UTC - 15. päivään klo 18 UTC
Näkyvyys: 6.4 km
Pilvistä 2000 ft:n korkeudessa
heikkoa lumisadetta

TAF: CYUY 150813Z 1508/1518 32012G22KT P6SM -SN OVC030 TEMPO 1508/1518 4SM -SN OVC020 RMK NXT FCST BY 151200Z

Säähavainnot ja -ennusteet yli 4000 lentoasemalta (METAR- ja TAF-raportit).

Käytössä olevat sääasemat on merkitty karttaan keltaisilla ja punaisilla pisteillä.

Aseta hiiri pisteen päälle nähdäksesi sääaseman nimen.

Klikkaa sitten nähdäksesi säähavainnot ja -ennusteet.

Kartan vaihtaminen: klikkaa mustalla rastilla varustettuja vihreitä pisteitä, niin voit zoomata sisään; viivalla varustettua vihreää pistettä, niin voit zoomata ulos tai vihreitä nuolia, niin pääset viereisille kartoille.


METAR-TAF: